createdAt,value
2019-04-26T00:01:33.108Z,101232.73
2019-04-26T00:04:05.225Z,101231.70
2019-04-26T00:06:36.877Z,101228.91
2019-04-26T00:09:19.115Z,101225.80
2019-04-26T00:11:52.368Z,101226.52
2019-04-26T00:14:32.021Z,101231.05
2019-04-26T00:17:22.359Z,101231.59
2019-04-26T00:19:54.542Z,101227.08
2019-04-26T00:22:26.683Z,101221.66
2019-04-26T00:24:58.440Z,101217.60
2019-04-26T00:27:30.308Z,101224.08
2019-04-26T00:30:02.058Z,101225.20
2019-04-26T00:32:34.933Z,101229.20
2019-04-26T00:35:07.767Z,101231.55
2019-04-26T00:37:39.703Z,101211.26
2019-04-26T00:40:12.891Z,101211.26
2019-04-26T00:42:46.390Z,101219.70
2019-04-26T00:45:21.073Z,101209.48
2019-04-26T00:47:52.995Z,101221.78
2019-04-26T00:50:24.771Z,101217.71
2019-04-26T00:52:56.645Z,101220.38
2019-04-26T00:55:30.584Z,101212.17
2019-04-26T00:58:03.757Z,101215.42
2019-04-26T01:00:35.624Z,101214.61
2019-04-26T01:03:07.461Z,101208.71
2019-04-26T01:05:40.794Z,101209.34
2019-04-26T01:08:12.833Z,101209.34
2019-04-26T01:10:44.526Z,101192.87
2019-04-26T01:13:16.449Z,101194.14
2019-04-26T01:15:49.542Z,101194.14
2019-04-26T01:18:22.283Z,101200.41
2019-04-26T01:20:56.660Z,101198.58
2019-04-26T01:23:30.326Z,101195.95
2019-04-26T01:26:11.044Z,101197.92
2019-04-26T01:28:48.511Z,101195.82
2019-04-26T01:31:20.328Z,101199.23
2019-04-26T01:33:52.705Z,101193.39
2019-04-26T01:36:26.526Z,101193.92
2019-04-26T01:39:01.728Z,101197.13
2019-04-26T01:41:44.856Z,101196.12
2019-04-26T01:44:24.728Z,101198.34
2019-04-26T01:46:57.574Z,101189.66
2019-04-26T01:49:29.415Z,101186.13
2019-04-26T01:52:13.340Z,101192.55
2019-04-26T01:54:46.739Z,101196.25
2019-04-26T01:57:19.357Z,101190.92
2019-04-26T01:59:55.510Z,101187.94
2019-04-26T02:02:29.787Z,101188.94
2019-04-26T02:05:06.620Z,101186.70
2019-04-26T02:07:38.764Z,101188.33
2019-04-26T02:10:16.091Z,101188.33
2019-04-26T02:12:49.368Z,101191.50
2019-04-26T02:15:24.486Z,101190.32
2019-04-26T02:17:59.795Z,101192.95
2019-04-26T02:21:09.583Z,101185.17
2019-04-26T02:23:52.259Z,101185.17
2019-04-26T02:26:40.746Z,101183.36
2019-04-26T02:29:18.446Z,101187.16
2019-04-26T02:31:56.008Z,101186.23
2019-04-26T02:34:31.862Z,101186.23
2019-04-26T02:37:08.033Z,101184.74
2019-04-26T02:39:43.244Z,101190.46
2019-04-26T02:42:28.693Z,101195.97
2019-04-26T02:45:21.565Z,101190.06
2019-04-26T02:47:56.892Z,101189.17
2019-04-26T02:50:39.289Z,101189.17
2019-04-26T02:53:45.655Z,101195.00
2019-04-26T02:56:31.609Z,101195.00
2019-04-26T02:59:11.633Z,101186.76
2019-04-26T03:02:05.572Z,101195.28
2019-04-26T03:04:47.103Z,101201.94
2019-04-26T03:07:35.873Z,101201.94
2019-04-26T03:10:10.426Z,101201.61
2019-04-26T03:12:46.169Z,101203.99
2019-04-26T03:15:22.463Z,101204.48
2019-04-26T03:18:01.623Z,101205.25
2019-04-26T03:20:40.099Z,101201.09
2019-04-26T03:23:19.232Z,101202.41
2019-04-26T03:26:02.124Z,101205.64
2019-04-26T03:28:37.619Z,101197.22
2019-04-26T03:31:16.742Z,101200.72
2019-04-26T03:34:10.141Z,101203.62
2019-04-26T03:37:20.253Z,101199.59
2019-04-26T03:39:57.275Z,101203.89
2019-04-26T03:42:44.675Z,101196.29
2019-04-26T03:45:25.109Z,101195.05
2019-04-26T03:48:25.238Z,101206.63
2019-04-26T03:51:15.174Z,101204.20
2019-04-26T03:53:55.806Z,101204.28
2019-04-26T03:56:42.367Z,101197.45
2019-04-26T03:59:26.113Z,101198.34
2019-04-26T04:02:08.443Z,101197.06
2019-04-26T04:04:48.351Z,101196.55
2019-04-26T04:07:37.195Z,101187.66
2019-04-26T04:10:07.367Z,101182.02
2019-04-26T04:12:51.002Z,101181.98
2019-04-26T04:15:50.481Z,101177.63
2019-04-26T04:18:30.900Z,101178.20
2019-04-26T04:21:37.478Z,101169.48
2019-04-26T04:24:14.957Z,101168.30
2019-04-26T04:26:54.782Z,101163.06
2019-04-26T04:29:43.047Z,101157.11
2019-04-26T04:32:43.786Z,101156.11
2019-04-26T04:35:20.509Z,101153.70
2019-04-26T04:38:21.633Z,101148.76
2019-04-26T04:41:13.876Z,101150.44
2019-04-26T04:44:00.183Z,101157.58
2019-04-26T04:46:47.458Z,101154.12
2019-04-26T04:49:52.796Z,101146.91
2019-04-26T04:52:35.338Z,101144.65
2019-04-26T04:55:20.330Z,101144.39
2019-04-26T04:58:17.683Z,101138.06
2019-04-26T05:01:25.829Z,101135.92
2019-04-26T05:04:14.194Z,101138.59
2019-04-26T05:07:19.146Z,101129.55
2019-04-26T05:10:02.122Z,101134.73
2019-04-26T05:12:58.000Z,101131.62
2019-04-26T05:15:52.729Z,101128.04
2019-04-26T05:18:33.474Z,101123.05
2019-04-26T05:21:08.198Z,101123.05
2019-04-26T05:23:48.995Z,101113.30
2019-04-26T05:26:37.096Z,101119.33
2019-04-26T05:29:25.723Z,101118.95
2019-04-26T05:32:03.274Z,101114.16
2019-04-26T05:34:41.890Z,101112.77
2019-04-26T05:37:53.061Z,101107.99
2019-04-26T05:40:45.830Z,101109.95
2019-04-26T05:43:41.546Z,101109.23
2019-04-26T05:46:37.267Z,101105.50
2019-04-26T05:49:55.864Z,101109.55
2019-04-26T05:52:32.094Z,101103.95
2019-04-26T05:55:30.644Z,101099.23
2019-04-26T05:58:26.127Z,101098.93
2019-04-26T06:01:20.331Z,101090.03
2019-04-26T06:04:21.631Z,101091.63
2019-04-26T06:07:29.648Z,101099.11
2019-04-26T06:10:33.029Z,101096.33
2019-04-26T06:13:11.806Z,101101.42
2019-04-26T06:16:00.275Z,101096.02
2019-04-26T06:18:49.340Z,101099.26
2019-04-26T06:21:43.475Z,101092.02
2019-04-26T06:24:27.927Z,101093.78
2019-04-26T06:27:27.985Z,101094.17
2019-04-26T06:30:19.818Z,101088.58
2019-04-26T06:33:15.168Z,101082.67
2019-04-26T06:35:50.300Z,101085.33
2019-04-26T06:38:43.798Z,101086.69
2019-04-26T06:41:23.000Z,101087.31
2019-04-26T06:44:12.661Z,101080.53
2019-04-26T06:47:12.738Z,101077.61
2019-04-26T06:49:52.848Z,101076.11
2019-04-26T06:52:27.593Z,101074.20
2019-04-26T06:55:09.674Z,101068.22
2019-04-26T06:58:16.373Z,101066.72
2019-04-26T07:01:21.053Z,101069.84
2019-04-26T07:04:04.336Z,101066.83
2019-04-26T07:07:00.924Z,101072.45
2019-04-26T07:10:04.086Z,101068.83
2019-04-26T07:13:14.771Z,101065.20
2019-04-26T07:15:53.710Z,101062.75
2019-04-26T07:18:29.706Z,101068.91
2019-04-26T07:21:04.538Z,101069.04
2019-04-26T07:24:09.833Z,101059.53
2019-04-26T07:27:09.020Z,101058.02
2019-04-26T07:30:13.414Z,101051.78
2019-04-26T07:33:06.269Z,101043.96
2019-04-26T07:35:49.696Z,101054.02
2019-04-26T07:38:54.611Z,101058.14
2019-04-26T07:41:57.509Z,101051.45
2019-04-26T07:44:53.288Z,101048.25
2019-04-26T07:47:31.708Z,101050.84
2019-04-26T07:50:17.976Z,101041.83
2019-04-26T07:53:19.968Z,101036.91
2019-04-26T07:56:02.325Z,101034.20
2019-04-26T07:59:08.791Z,101037.11
2019-04-26T08:02:06.663Z,101034.23
2019-04-26T08:04:44.292Z,101032.70
2019-04-26T08:07:25.423Z,101033.00
2019-04-26T08:10:09.917Z,101029.65
2019-04-26T08:12:44.693Z,101028.77
2019-04-26T08:15:36.073Z,101033.53
2019-04-26T08:18:15.246Z,101032.24
2019-04-26T08:20:52.189Z,101023.58
2019-04-26T08:23:41.126Z,101020.72
2019-04-26T08:26:09.120Z,101023.03
2019-04-26T08:28:44.817Z,101014.93
2019-04-26T08:31:22.698Z,101013.39
2019-04-26T08:33:54.946Z,101006.52
2019-04-26T08:36:31.069Z,100997.91
2019-04-26T08:39:10.929Z,101007.95
2019-04-26T08:41:45.017Z,101002.36
2019-04-26T08:44:22.854Z,100998.53
2019-04-26T08:46:58.377Z,101002.71
2019-04-26T08:49:40.198Z,100990.98
2019-04-26T08:52:14.827Z,100986.04
2019-04-26T08:54:52.047Z,100987.50
2019-04-26T08:57:26.740Z,100982.11
2019-04-26T09:00:01.612Z,100978.84
2019-04-26T09:02:39.601Z,100983.47
2019-04-26T09:05:30.268Z,100976.13
2019-04-26T09:08:04.349Z,100975.82
2019-04-26T09:10:42.957Z,100973.16
2019-04-26T09:13:15.994Z,100976.03
2019-04-26T09:16:06.940Z,100976.16
2019-04-26T09:18:43.881Z,100961.81
2019-04-26T09:21:19.277Z,100969.95
2019-04-26T09:23:55.833Z,100958.33
2019-04-26T09:26:30.613Z,100963.67
2019-04-26T09:29:05.438Z,100963.65
2019-04-26T09:31:41.038Z,100962.76
2019-04-26T09:34:32.657Z,100958.03
2019-04-26T09:37:06.352Z,100960.14
2019-04-26T09:39:41.690Z,100956.76
2019-04-26T09:42:31.153Z,100956.59
2019-04-26T09:45:23.882Z,100956.05
2019-04-26T09:48:01.830Z,100949.80
2019-04-26T09:50:38.219Z,100953.87
2019-04-26T09:53:11.380Z,100949.88
2019-04-26T09:55:45.992Z,100950.72
2019-04-26T09:58:18.159Z,100945.81
2019-04-26T10:00:50.361Z,100956.98
2019-04-26T10:03:22.197Z,100950.20
2019-04-26T10:05:55.828Z,100951.44
2019-04-26T10:08:29.443Z,100955.83
2019-04-26T10:11:09.627Z,100956.01
2019-04-26T10:13:42.819Z,100950.94
2019-04-26T10:16:17.198Z,100948.00
2019-04-26T10:18:50.694Z,100949.56
2019-04-26T10:21:22.345Z,100939.11
2019-04-26T10:23:54.097Z,100943.98
2019-04-26T10:26:28.228Z,100942.31
2019-04-26T10:29:01.432Z,100939.75
2019-04-26T10:31:34.705Z,100935.98
2019-04-26T10:34:07.824Z,100932.63
2019-04-26T10:36:42.168Z,100940.83
2019-04-26T10:39:17.454Z,100934.63
2019-04-26T10:41:50.796Z,100931.25
2019-04-26T10:44:23.732Z,100932.61
2019-04-26T10:46:59.861Z,100933.89
2019-04-26T10:49:44.615Z,100925.19
2019-04-26T10:52:25.989Z,100920.77
2019-04-26T10:55:17.857Z,100921.87
2019-04-26T10:57:52.445Z,100922.72
2019-04-26T11:00:42.688Z,100917.31
2019-04-26T11:03:19.124Z,100907.09
2019-04-26T11:05:53.814Z,100910.89
2019-04-26T11:08:25.500Z,100904.50
2019-04-26T11:10:59.817Z,100893.05
2019-04-26T11:13:36.419Z,100893.53
2019-04-26T11:16:08.967Z,100893.16
2019-04-26T11:18:43.021Z,100892.63
2019-04-26T11:21:16.337Z,100889.33
2019-04-26T11:23:50.045Z,100886.17
2019-04-26T11:26:21.889Z,100888.00
2019-04-26T11:28:57.247Z,100891.87
2019-04-26T11:31:29.901Z,100885.36
2019-04-26T11:34:05.575Z,100872.48
2019-04-26T11:36:37.697Z,100871.07
2019-04-26T11:39:11.720Z,100870.97
2019-04-26T11:41:47.468Z,100871.07
2019-04-26T11:44:19.272Z,100866.73
2019-04-26T11:46:51.096Z,100860.13
2019-04-26T11:49:25.871Z,100858.86
2019-04-26T11:52:05.220Z,100861.38
2019-04-26T11:54:36.901Z,100854.95
2019-04-26T11:57:12.010Z,100853.30
2019-04-26T11:59:44.483Z,100854.06
2019-04-26T12:02:17.251Z,100857.66
2019-04-26T12:04:55.094Z,100853.86
2019-04-26T12:07:29.066Z,100851.44
2019-04-26T12:10:05.956Z,100850.00
2019-04-26T12:12:37.433Z,100851.21
2019-04-26T12:15:10.255Z,100850.31
2019-04-26T12:17:43.250Z,100847.52
2019-04-26T12:20:16.567Z,100845.48
2019-04-26T12:22:48.314Z,100849.29
2019-04-26T12:25:20.112Z,100842.30
2019-04-26T12:27:53.618Z,100839.02
2019-04-26T12:30:26.891Z,100832.28
2019-04-26T12:33:00.406Z,100834.74
2019-04-26T12:35:32.281Z,100834.32
2019-04-26T12:38:04.097Z,100825.58
2019-04-26T12:40:35.761Z,100822.98
2019-04-26T12:43:09.173Z,100820.67
2019-04-26T12:45:51.535Z,100818.59
2019-04-26T12:48:22.441Z,100816.87
2019-04-26T12:50:56.619Z,100807.31
2019-04-26T12:53:31.257Z,100806.00
2019-04-26T12:56:04.173Z,100805.66
2019-04-26T12:58:35.843Z,100802.27
2019-04-26T13:01:12.301Z,100793.79
2019-04-26T13:03:44.128Z,100792.72
2019-04-26T13:06:16.158Z,100793.16
2019-04-26T13:08:51.513Z,100798.83
2019-04-26T13:11:26.798Z,100795.36
2019-04-26T13:14:16.241Z,100787.44
2019-04-26T13:16:52.407Z,100792.18
2019-04-26T13:19:24.993Z,100790.70
2019-04-26T13:21:58.890Z,100787.41
2019-04-26T13:24:30.530Z,100786.95
2019-04-26T13:27:05.868Z,100788.33
2019-04-26T13:29:38.243Z,100789.63
2019-04-26T13:32:11.414Z,100784.26
2019-04-26T13:34:44.266Z,100785.09
2019-04-26T13:37:15.986Z,100790.69
2019-04-26T13:39:47.565Z,100784.26
2019-04-26T13:42:19.291Z,100787.98
2019-04-26T13:45:03.345Z,100789.41
2019-04-26T13:47:55.234Z,100786.31
2019-04-26T13:50:30.585Z,100789.02
2019-04-26T13:53:02.406Z,100786.54
2019-04-26T13:55:34.329Z,100787.66
2019-04-26T13:58:07.128Z,100787.20
2019-04-26T14:00:43.525Z,100782.66
2019-04-26T14:03:15.850Z,100783.08
2019-04-26T14:05:49.689Z,100779.87
2019-04-26T14:08:21.598Z,100776.05
2019-04-26T14:10:55.106Z,100778.84
2019-04-26T14:13:30.977Z,100778.78
2019-04-26T14:16:11.131Z,100773.88
2019-04-26T14:18:46.567Z,100775.42
2019-04-26T14:21:18.303Z,100773.23
2019-04-26T14:23:55.783Z,100780.03
2019-04-26T14:26:39.870Z,100774.62
2019-04-26T14:29:12.006Z,100777.98
2019-04-26T14:31:47.300Z,100777.33
2019-04-26T14:34:19.627Z,100775.94
2019-04-26T14:37:05.574Z,100771.89
2019-04-26T14:39:38.274Z,100775.23
2019-04-26T14:42:02.532Z,100772.27
2019-04-26T14:44:35.429Z,100777.44
2019-04-26T14:47:13.790Z,100773.72
2019-04-26T14:49:43.098Z,100777.12
2019-04-26T14:52:15.037Z,100780.17
2019-04-26T14:54:48.771Z,100776.50
2019-04-26T14:57:28.435Z,100779.05
2019-04-26T14:59:56.975Z,100777.89
2019-04-26T15:02:32.919Z,100784.80
2019-04-26T15:05:22.936Z,100778.77
2019-04-26T15:07:54.602Z,100772.57
2019-04-26T15:10:43.883Z,100775.63
2019-04-26T15:13:17.953Z,100776.66
2019-04-26T15:15:48.577Z,100776.54
2019-04-26T15:18:22.559Z,100775.66
2019-04-26T15:20:57.041Z,100777.70
2019-04-26T15:23:28.114Z,100776.73
2019-04-26T15:26:04.775Z,100778.75
2019-04-26T15:28:36.318Z,100775.73
2019-04-26T15:31:09.569Z,100776.41
2019-04-26T15:33:48.642Z,100776.27
2019-04-26T15:36:23.113Z,100773.39
2019-04-26T15:38:57.016Z,100777.72
2019-04-26T15:41:30.799Z,100774.02
2019-04-26T15:44:11.430Z,100770.65
2019-04-26T15:46:59.715Z,100772.96
2019-04-26T15:49:39.545Z,100778.67
2019-04-26T15:52:12.115Z,100777.45
2019-04-26T15:54:43.982Z,100780.28
2019-04-26T15:57:16.168Z,100772.13
2019-04-26T15:59:49.482Z,100776.30
2019-04-26T16:02:26.195Z,100784.31
2019-04-26T16:05:02.224Z,100781.41
2019-04-26T16:07:36.648Z,100783.34
2019-04-26T16:10:09.518Z,100783.95
2019-04-26T16:12:48.003Z,100781.16
2019-04-26T16:15:19.723Z,100780.94
2019-04-26T16:17:52.538Z,100776.22
2019-04-26T16:20:31.712Z,100778.77
2019-04-26T16:23:07.048Z,100782.01
2019-04-26T16:25:38.337Z,100777.36
2019-04-26T16:28:30.851Z,100778.83
2019-04-26T16:31:22.618Z,100778.14
2019-04-26T16:34:10.824Z,100780.16
2019-04-26T16:36:45.273Z,100782.78
2019-04-26T16:39:16.417Z,100778.20
2019-04-26T16:41:51.913Z,100775.95
2019-04-26T16:44:29.897Z,100782.38
2019-04-26T16:47:03.674Z,100780.09
2019-04-26T16:49:41.301Z,100779.56
2019-04-26T16:52:09.928Z,100778.78
2019-04-26T16:54:42.346Z,100776.63
2019-04-26T16:57:15.586Z,100781.47
2019-04-26T16:59:56.967Z,100780.52
2019-04-26T17:02:26.394Z,100784.08
2019-04-26T17:05:03.633Z,100788.02
2019-04-26T17:07:39.336Z,100796.16
2019-04-26T17:10:12.172Z,100798.59
2019-04-26T17:12:46.271Z,100806.50
2019-04-26T17:15:21.134Z,100805.03
2019-04-26T17:17:53.814Z,100813.42
2019-04-26T17:20:28.256Z,100811.55
2019-04-26T17:23:12.467Z,100816.67
2019-04-26T17:26:04.103Z,100821.98
2019-04-26T17:28:39.781Z,100823.97
2019-04-26T17:31:13.326Z,100824.24
2019-04-26T17:33:50.659Z,100827.98
2019-04-26T17:36:24.761Z,100831.92
2019-04-26T17:38:57.834Z,100840.42
2019-04-26T17:41:31.020Z,100836.84
2019-04-26T17:44:10.698Z,100843.14
2019-04-26T17:46:40.067Z,100841.33
2019-04-26T17:49:12.139Z,100846.30
2019-04-26T17:51:45.157Z,100847.54
2019-04-26T17:54:40.944Z,100846.44
2019-04-26T17:56:53.552Z,100848.03
2019-04-26T17:59:33.723Z,100853.98
2019-04-26T18:02:01.394Z,100854.59
2019-04-26T18:04:37.425Z,100858.42
2019-04-26T18:07:37.690Z,100860.02
2019-04-26T18:09:50.675Z,100866.31
2019-04-26T18:12:22.738Z,100861.00
2019-04-26T18:14:54.663Z,100865.24
2019-04-26T18:17:28.441Z,100864.52
2019-04-26T18:20:10.079Z,100864.05
2019-04-26T18:22:54.226Z,100858.00
2019-04-26T18:25:27.810Z,100862.98
2019-04-26T18:27:59.455Z,100857.52
2019-04-26T18:30:33.296Z,100858.27
2019-04-26T18:33:08.239Z,100858.36
2019-04-26T18:35:43.497Z,100858.36
2019-04-26T18:38:14.663Z,100860.97
2019-04-26T18:41:00.116Z,100861.77
2019-04-26T18:43:24.893Z,100861.75
2019-04-26T18:46:03.404Z,100864.74
2019-04-26T18:48:40.746Z,100864.47
2019-04-26T18:51:12.208Z,100862.52
2019-04-26T18:53:53.118Z,100865.53
2019-04-26T18:56:25.084Z,100860.55
2019-04-26T18:59:00.309Z,100857.64
2019-04-26T19:01:38.009Z,100856.32
2019-04-26T19:04:12.542Z,100856.28
2019-04-26T19:06:42.314Z,100857.09
2019-04-26T19:09:17.682Z,100856.80
2019-04-26T19:11:53.577Z,100861.34
2019-04-26T19:14:48.560Z,100856.24
2019-04-26T19:17:19.959Z,100857.20
2019-04-26T19:20:11.457Z,100857.28
2019-04-26T19:22:46.528Z,100848.75
2019-04-26T19:25:23.111Z,100849.48
2019-04-26T19:27:54.063Z,100851.69
2019-04-26T19:30:26.471Z,100852.42
2019-04-26T19:33:02.069Z,100852.19
2019-04-26T19:35:39.427Z,100853.27
2019-04-26T19:38:11.950Z,100848.28
2019-04-26T19:40:48.062Z,100844.30
2019-04-26T19:43:30.302Z,100849.71
2019-04-26T19:46:02.936Z,100850.94
2019-04-26T19:48:36.145Z,100851.77
2019-04-26T19:51:27.139Z,100860.70
2019-04-26T19:54:17.342Z,100852.66
2019-04-26T19:57:01.134Z,100857.66
2019-04-26T19:59:34.705Z,100855.11
2019-04-26T20:02:09.592Z,100854.16
2019-04-26T20:04:41.958Z,100859.77
2019-04-26T20:07:14.023Z,100856.02
2019-04-26T20:09:47.001Z,100859.05
2019-04-26T20:12:23.361Z,100855.98
2019-04-26T20:14:58.258Z,100857.67
2019-04-26T20:17:28.853Z,100860.14
2019-04-26T20:20:02.051Z,100868.09
2019-04-26T20:22:35.417Z,100854.83
2019-04-26T20:25:09.285Z,100864.17
2019-04-26T20:27:42.460Z,100865.23
2019-04-26T20:30:18.157Z,100865.95
2019-04-26T20:32:52.378Z,100857.64
2019-04-26T20:35:29.232Z,100861.64
2019-04-26T20:38:04.712Z,100861.96
2019-04-26T20:40:37.486Z,100857.91
2019-04-26T20:43:22.967Z,100862.64
2019-04-26T20:46:07.705Z,100857.66
2019-04-26T20:48:18.927Z,100865.23
2019-04-26T20:50:52.041Z,100861.92
2019-04-26T20:53:26.386Z,100860.55
2019-04-26T20:55:59.372Z,100865.53
2019-04-26T20:58:37.498Z,100857.81
2019-04-26T21:01:14.054Z,100862.16
2019-04-26T21:03:59.233Z,100865.59
2019-04-26T21:06:37.018Z,100862.55
2019-04-26T21:09:12.005Z,100860.95
2019-04-26T21:11:44.478Z,100866.25
2019-04-26T21:14:16.639Z,100861.64
2019-04-26T21:16:50.597Z,100861.64
2019-04-26T21:19:28.355Z,100863.70
2019-04-26T21:22:04.347Z,100857.66
2019-04-26T21:24:38.324Z,100864.28
2019-04-26T21:27:25.984Z,100862.98
2019-04-26T21:30:13.497Z,100863.77
2019-04-26T21:32:59.169Z,100862.98
2019-04-26T21:35:34.921Z,100865.08
2019-04-26T21:38:08.193Z,100858.85
2019-04-26T21:40:43.844Z,100858.85
2019-04-26T21:43:16.694Z,100850.36
2019-04-26T21:45:48.449Z,100856.72
2019-04-26T21:48:23.519Z,100851.25
2019-04-26T21:50:55.103Z,100856.90
2019-04-26T21:53:29.863Z,100852.19
2019-04-26T21:56:03.038Z,100844.05
2019-04-26T21:58:36.493Z,100846.42
2019-04-26T22:01:11.015Z,100844.98
2019-04-26T22:03:47.426Z,100842.73
2019-04-26T22:06:19.800Z,100843.48
2019-04-26T22:08:59.332Z,100847.82
2019-04-26T22:11:32.610Z,100845.44
2019-04-26T22:14:06.482Z,100840.92
2019-04-26T22:16:57.536Z,100841.11
2019-04-26T22:19:32.512Z,100840.42
2019-04-26T22:22:18.717Z,100839.20
2019-04-26T22:24:55.498Z,100844.13
2019-04-26T22:27:27.452Z,100842.59
2019-04-26T22:29:59.695Z,100839.67
2019-04-26T22:32:33.288Z,100841.34
2019-04-26T22:35:05.471Z,100835.47
2019-04-26T22:37:37.438Z,100835.28
2019-04-26T22:40:10.492Z,100833.94
2019-04-26T22:42:45.637Z,100833.75
2019-04-26T22:45:23.393Z,100826.56
2019-04-26T22:48:06.913Z,100833.87
2019-04-26T22:50:38.580Z,100832.56
2019-04-26T22:53:11.916Z,100823.29
2019-04-26T22:55:44.496Z,100826.27
2019-04-26T22:58:20.619Z,100827.64
2019-04-26T23:00:50.132Z,100823.30
2019-04-26T23:03:23.980Z,100825.67
2019-04-26T23:05:55.579Z,100817.66
2019-04-26T23:08:30.832Z,100816.67
2019-04-26T23:11:02.484Z,100812.72
2019-04-26T23:13:41.337Z,100812.72
2019-04-26T23:16:25.529Z,100808.82
2019-04-26T23:19:15.347Z,100796.58
2019-04-26T23:21:55.859Z,100798.73
2019-04-26T23:24:26.116Z,100808.12
2019-04-26T23:26:57.799Z,100808.06
2019-04-26T23:29:29.564Z,100808.34
2019-04-26T23:32:01.266Z,100806.89
2019-04-26T23:34:33.766Z,100806.55
2019-04-26T23:37:06.137Z,100808.83
2019-04-26T23:39:42.944Z,100808.31
2019-04-26T23:42:16.487Z,100803.63
2019-04-26T23:44:46.406Z,100809.70
2019-04-26T23:47:22.994Z,100803.42
2019-04-26T23:49:53.874Z,100790.66
2019-04-26T23:52:25.634Z,100790.66
2019-04-26T23:54:57.326Z,100778.39
2019-04-26T23:57:31.369Z,100778.66
